createdAt,value
2023-02-28T00:05:40.368Z,65
2023-02-28T00:20:40.400Z,65
2023-02-28T00:35:40.377Z,66
2023-02-28T00:50:40.362Z,66
2023-02-28T01:05:40.304Z,66
2023-02-28T01:20:40.326Z,67
2023-02-28T01:35:40.371Z,67
2023-02-28T01:50:40.309Z,67
2023-02-28T02:05:40.283Z,68
2023-02-28T02:20:40.328Z,68
2023-02-28T02:35:40.289Z,68
2023-02-28T02:50:40.310Z,69
2023-02-28T03:05:40.231Z,69
2023-02-28T03:20:40.284Z,69
2023-02-28T03:35:40.252Z,69
2023-02-28T03:50:40.268Z,69
2023-02-28T04:05:40.250Z,69
2023-02-28T04:20:40.278Z,69
2023-02-28T04:35:40.373Z,69
2023-02-28T04:50:40.277Z,69
2023-02-28T05:05:40.194Z,69
2023-02-28T05:20:40.238Z,69
2023-02-28T05:35:40.209Z,69
2023-02-28T05:50:40.188Z,69
2023-02-28T06:05:40.154Z,69
2023-02-28T06:20:40.151Z,70
2023-02-28T06:35:40.214Z,70
2023-02-28T06:50:40.172Z,70
2023-02-28T07:05:40.171Z,71
2023-02-28T07:20:40.166Z,71
2023-02-28T07:35:40.176Z,70
2023-02-28T07:50:40.164Z,70
2023-02-28T08:05:40.117Z,70
2023-02-28T08:20:40.180Z,70
2023-02-28T08:35:40.153Z,70
2023-02-28T08:50:40.091Z,70
2023-02-28T09:05:40.077Z,69
2023-02-28T09:20:40.096Z,69
2023-02-28T09:35:40.060Z,68
2023-02-28T09:50:40.085Z,68
2023-02-28T10:05:40.047Z,68
2023-02-28T10:20:40.056Z,67
2023-02-28T10:35:40.030Z,67
2023-02-28T10:50:40.045Z,67
2023-02-28T11:05:39.972Z,67
2023-02-28T11:20:40.007Z,66
2023-02-28T11:35:40.031Z,66
2023-02-28T11:50:39.967Z,66
2023-02-28T12:05:39.921Z,65
2023-02-28T12:20:39.969Z,65
2023-02-28T12:35:39.937Z,65
2023-02-28T12:50:39.940Z,65
2023-02-28T13:05:39.888Z,65
2023-02-28T13:20:39.899Z,64
2023-02-28T13:35:39.854Z,64
2023-02-28T13:50:39.891Z,64
2023-02-28T14:05:39.877Z,64
2023-02-28T14:20:39.838Z,64
2023-02-28T14:35:39.853Z,64
2023-02-28T14:50:39.823Z,64
2023-02-28T15:05:39.779Z,64
2023-02-28T15:20:39.795Z,65
2023-02-28T15:35:39.820Z,65
2023-02-28T15:50:39.765Z,65
2023-02-28T16:05:39.731Z,65
2023-02-28T16:20:39.765Z,65
2023-02-28T16:35:39.714Z,66
2023-02-28T16:50:39.776Z,66
2023-02-28T17:05:39.727Z,66
2023-02-28T17:20:39.701Z,66
2023-02-28T17:35:39.759Z,66
2023-02-28T17:50:39.698Z,66
2023-02-28T18:05:39.667Z,66
2023-02-28T18:20:39.682Z,66
2023-02-28T18:35:39.665Z,66
2023-02-28T18:50:39.650Z,65
2023-02-28T19:05:39.606Z,65
2023-02-28T19:20:39.619Z,65
2023-02-28T19:35:39.617Z,65
2023-02-28T19:50:39.614Z,65
2023-02-28T20:05:39.570Z,65
2023-02-28T20:20:39.589Z,66
2023-02-28T20:35:39.633Z,66
2023-02-28T20:50:39.581Z,66
2023-02-28T21:05:39.527Z,66
2023-02-28T21:20:39.549Z,67
2023-02-28T21:35:39.533Z,67
2023-02-28T21:50:39.510Z,67
2023-02-28T22:05:39.496Z,67
2023-02-28T22:20:39.522Z,67
2023-02-28T22:35:39.493Z,67
2023-02-28T22:50:39.482Z,68
2023-02-28T23:05:39.427Z,68
2023-02-28T23:20:39.476Z,68
2023-02-28T23:35:39.481Z,68
2023-02-28T23:50:39.445Z,68
